Terminal Aerodrome Forecast
Issued by NWS

Current Version | Previous Version | Graphics & Text | Print | Product List | Glossary On
Versions: 1 2 3 4 5 6 7 8 9 10 11 12 13 14 15 16 17 18 19 20 21 22 23 24 25
872
FTUS41 KILN 261136
TAFLUK
TAF
KLUK 261136Z 2612/2712 00000KT 4SM BR SCT250
     FM261400 28004KT P6SM SCT045 BKN250
     FM270000 05003KT P6SM BKN250
     FM270400 00000KT 4SM BR BKN250
     FM270800 00000KT 1SM BR BKN250=

USA.gov is the U.S. government's official web portal to all federal, state and local government web resources and services.